< < Back
Terminal Aerodrome Forecast


Current Version              Previous Versions:   1  2  3  4  5  6  7  8  9  

Terminal Aerodrome Forecast

808
FTUS42 KCAE 281100
TAFCAE
TAF
KCAE 281136Z 2812/2912 32007KT P6SM SKC
     FM281400 30010G15KT P6SM FEW050
     FM290000 31005KT P6SM SKC
     FM290600 VRB03KT P6SM SKC=



Latest METAR

480
SAUS80 KWBC 281200 RRA
MTRCAE
METAR KCAE 281156Z 31008KT 10SM FEW065 06/M03 A3003 RMK AO2 SLP169 60000
70019 T00611033 10083 20044 53029


USA.gov is the U.S. government's official web portal to all federal, state and local government web resources and services.